Date,TemperatureHighF,TemperatureAvgF,TemperatureLowF,DewpointHighF,DewpointAvgF,DewpointLowF,HumidityHigh,HumidityAvg,HumidityLow,PressureMaxIn,PressureMinIn,WindSpeedMaxMPH,WindSpeedAvgMPH,GustSpeedMaxMPH,PrecipitationSumIn
2013-2-1,59.3,50.3,43.9,28.5,17.4,5.9,42,28,17,29.86,29.79,11,4,16,0.00
2013-2-2,55.6,50.6,47.3,28.2,18.4,5.9,45,29,17,29.87,29.81,6,2,14,0.00
2013-2-3,50.2,44.9,41.6,39.0,34.9,26.2,83,69,44,29.82,29.68,16,5,18,0.02
2013-2-4,49.9,44.9,40.9,33.8,27.4,24.3,73,51,37,29.73,29.67,13,5,18,0.00
2013-2-5,56.3,47.0,41.2,32.4,24.9,18.9,60,42,33,29.71,29.62,9,3,17,0.00
2013-2-6,52.8,44.7,39.8,23.6,17.3,2.7,49,35,16,29.71,29.57,25,6,25,0.00
2013-2-7,52.0,42.6,28.2,29.6,18.1,0.1,89,42,16,29.72,29.53,14,5,21,0.00
2013-2-8,28.2,25.2,22.5,26.4,23.1,20.0,93,92,90,29.51,29.37,24,14,31,0.00
2013-2-9,27.2,23.5,20.0,25.5,21.2,17.3,93,91,89,29.57,29.38,14,7,16,0.00
2013-2-10,28.7,24.5,20.5,26.9,22.3,17.8,93,91,89,29.57,29.51,11,3,11,0.00
2013-2-11,29.0,25.2,21.3,27.0,21.5,13.1,93,86,70,29.70,29.54,9,2,9,0.04
2013-2-12,37.0,29.5,22.4,14.9,8.4,4.0,68,43,27,29.79,29.71,22,10,25,0.01
2013-2-13,48.8,39.8,33.1,17.9,11.8,4.2,37,32,26,29.79,29.74,21,9,25,0.00
2013-2-14,45.7,42.7,39.3,20.3,18.5,16.9,41,37,35,29.80,29.71,26,14,28,0.00
2013-2-15,44.2,41.8,38.9,17.9,12.6,4.8,39,31,20,29.85,29.73,30,22,37,0.00
2013-2-16,52.0,46.0,40.3,13.8,4.7,-6.7,28,19,9,29.84,29.68,22,9,29,0.00
2013-2-17,48.0,41.8,37.2,25.6,10.8,5.7,56,29,22,29.67,29.56,24,10,25,0.00
2013-2-18,52.8,43.6,35.5,33.5,11.6,0.3,74,30,17,29.64,29.56,9,4,14,0.00
2013-2-19,35.3,28.1,24.7,28.0,19.9,-6.5,94,79,16,29.53,29.27,20,8,20,0.00
2013-2-20,26.6,23.7,20.3,24.6,21.4,17.6,93,91,89,29.51,29.20,24,12,24,0.00
2013-2-21,29.5,26.0,21.6,28.0,24.0,19.1,94,92,90,29.61,29.50,9,3,10,0.01
2013-2-22,43.6,32.5,24.2,29.8,18.5,13.3,90,58,38,29.74,29.60,17,7,22,0.11
2013-2-23,46.7,38.5,30.7,26.3,18.2,9.6,74,45,28,29.71,29.53,19,7,19,0.01
2013-2-24,34.0,31.0,27.2,22.1,4.7,-4.2,64,35,21,29.71,29.54,28,13,31,0.00
2013-2-25,47.6,37.8,29.5,14.3,5.1,-2.7,38,26,12,29.74,29.65,17,7,19,0.00
2013-2-26,42.1,39.4,36.0,9.8,3.8,-13.4,29,23,9,29.74,29.59,23,10,25,0.00
2013-2-27,40.1,36.4,31.2,8.0,3.4,-1.8,30,25,18,29.84,29.74,22,13,25,0.00
2013-2-28,44.9,41.7,36.9,6.4,3.2,-1.4,21,20,19,29.92,29.83,24,16,25,0.00